Observations for NAPLES CAPODICHINO, Italy (LIRN)

LIRN 200750Z 06010KT 9999 -RA FEW045 BKN070 11/06 Q1021 NOSIG   
LIRN 200720Z 07010KT 9999 FEW045 BKN070 11/05 Q1021 NOSIG   
LIRN 200650Z 05012KT 010V070 9999 FEW045 BKN070 11/05 Q1020 NOSIG   
LIRN 200620Z 04010KT 9999 FEW040 BKN070 11/05 Q1020 NOSIG   
LIRN 200550Z 04009KT 9999 BKN070 11/05 Q1020 NOSIG  
LIRN 200520Z 05010KT 9999 BKN070 11/05 Q1019 NOSIG  
LIRN 200450Z 06010KT 9999 BKN070 11/05 Q1019 NOSIG  
LIRN 200420Z 05008KT 9999 SCT070 11/05 Q1019 NOSIG  
LIRN 200350Z 05009KT CAVOK 11/05 Q1019 NOSIG
LIRN 200320Z 05010KT CAVOK 11/05 Q1019 NOSIG
LIRN 200250Z 03008KT CAVOK 11/05 Q1019 NOSIG
LIRN 200220Z 03008KT CAVOK 11/05 Q1019 NOSIG
LIRN 200150Z 03008KT CAVOK 11/05 Q1019 NOSIG
LIRN 200120Z 02007KT CAVOK 11/05 Q1019 NOSIG
LIRN 200050Z 04009KT CAVOK 10/05 Q1019 NOSIG
LIRN 200020Z 03009KT CAVOK 10/05 Q1019 NOSIG
LIRN 192350Z 03008KT CAVOK 10/05 Q1019 NOSIG
LIRN 192320Z 03008KT CAVOK 10/06 Q1019 NOSIG
LIRN 192250Z 03008KT CAVOK 10/06 Q1019 NOSIG
LIRN 192220Z 04007KT CAVOK 11/06 Q1019 NOSIG
LIRN 192150Z 02007KT CAVOK 11/06 Q1019 NOSIG
LIRN 192120Z 03006KT CAVOK 11/06 Q1019 NOSIG
LIRN 192050Z 02009KT CAVOK 11/06 Q1018 NOSIG
LIRN 192020Z 03007KT CAVOK 11/07 Q1018 NOSIG
LIRN 191950Z 02006KT 330V060 CAVOK 12/07 Q1018 NOSIG
LIRN 191920Z 03008KT CAVOK 12/07 Q1018 NOSIG
LIRN 191850Z 05010KT CAVOK 13/07 Q1017 NOSIG
LIRN 191820Z 34005KT 290V010 CAVOK 14/07 Q1017 NOSIG
LIRN 191750Z 33008KT CAVOK 14/06 Q1017 NOSIG
LIRN 191720Z 33008KT CAVOK 14/04 Q1016 NOSIG
LIRN 191650Z 32008KT CAVOK 14/04 Q1016 NOSIG
LIRN 191620Z 32009KT 290V360 CAVOK 15/04 Q1016 NOSIG
LIRN 191550Z 30009KT CAVOK 15/04 Q1016 NOSIG
LIRN 191520Z 30008KT 270V330 CAVOK 15/05 Q1015 NOSIG
LIRN 191450Z 29010KT CAVOK 16/05 Q1015 NOSIG
LIRN 191420Z 35004KT 290V090 CAVOK 17/03 Q1015 NOSIG
LIRN 191350Z 33004KT 290V010 9999 BKN070 17/02 Q1016 NOSIG  
LIRN 191320Z 31005KT 270V010 9999 BKN070 17/03 Q1016 NOSIG  
LIRN 191250Z VRB02KT 9999 BKN070 17/03 Q1016 NOSIG  
LIRN 191220Z 31005KT 270V350 9999 BKN070 17/02 Q1016 NOSIG  
LIRN 191150Z 29005KT 240V010 9999 SCT070 16/02 Q1016 NOSIG  
LIRN 191120Z 02006KT 280V070 9999 SCT060 17/01 Q1016 NOSIG  
LIRN 191050Z 35006KT 290V040 9999 FEW060 16/02 Q1016 NOSIG  
LIRN 191020Z 35004KT 270V040 9999 FEW060 16/02 Q1016 NOSIG  
LIRN 190950Z 01004KT 270V080 9999 FEW060 15/04 Q1016 NOSIG  
LIRN 190920Z 02004KT 340V130 9999 FEW060 15/04 Q1016 NOSIG  
LIRN 190850Z 01004KT 290V050 9999 FEW060 14/04 Q1016 NOSIG  
LIRN 190820Z 34005KT 300V010 9999 FEW070 13/06 Q1016 NOSIG  
LIRN 190750Z 36003KT 330V070 CAVOK 12/07 Q1016 NOSIG
LIRN 190720Z 35003KT 330V060 CAVOK 11/07 Q1016 NOSIG